sensor_id;sensor_type;location;lat;lon;timestamp;P1;durP1;ratioP1;P2;durP2;ratioP2
22030;SDS011;11179;52.106;21.024;2022-10-16T00:01:11;28.17;;;14.77;;
22030;SDS011;11179;52.106;21.024;2022-10-16T00:03:38;29.33;;;14.37;;
22030;SDS011;11179;52.106;21.024;2022-10-16T00:06:04;33.20;;;15.60;;
22030;SDS011;11179;52.106;21.024;2022-10-16T00:08:30;29.47;;;14.73;;
22030;SDS011;11179;52.106;21.024;2022-10-16T00:11:04;27.50;;;15.17;;
22030;SDS011;11179;52.106;21.024;2022-10-16T00:13:31;26.97;;;14.60;;
22030;SDS011;11179;52.106;21.024;2022-10-16T00:15:58;29.20;;;15.23;;
22030;SDS011;11179;52.106;21.024;2022-10-16T00:18:24;28.83;;;15.03;;
22030;SDS011;11179;52.106;21.024;2022-10-16T00:20:50;25.70;;;14.83;;
22030;SDS011;11179;52.106;21.024;2022-10-16T00:23:15;31.00;;;16.13;;
22030;SDS011;11179;52.106;21.024;2022-10-16T00:25:41;32.30;;;16.63;;
22030;SDS011;11179;52.106;21.024;2022-10-16T00:28:06;27.73;;;15.43;;
22030;SDS011;11179;52.106;21.024;2022-10-16T00:30:31;30.13;;;15.13;;
22030;SDS011;11179;52.106;21.024;2022-10-16T00:32:57;34.83;;;15.27;;
22030;SDS011;11179;52.106;21.024;2022-10-16T00:35:22;28.80;;;15.73;;
22030;SDS011;11179;52.106;21.024;2022-10-16T00:37:47;33.50;;;15.87;;
22030;SDS011;11179;52.106;21.024;2022-10-16T00:40:13;29.33;;;15.50;;
22030;SDS011;11179;52.106;21.024;2022-10-16T00:42:38;29.80;;;15.37;;
22030;SDS011;11179;52.106;21.024;2022-10-16T00:45:04;29.80;;;15.90;;
22030;SDS011;11179;52.106;21.024;2022-10-16T00:47:34;34.07;;;16.17;;
22030;SDS011;11179;52.106;21.024;2022-10-16T00:50:44;33.97;;;16.40;;
22030;SDS011;11179;52.106;21.024;2022-10-16T00:52:56;25.80;;;14.83;;
22030;SDS011;11179;52.106;21.024;2022-10-16T00:55:23;32.30;;;16.37;;
22030;SDS011;11179;52.106;21.024;2022-10-16T00:57:50;27.17;;;14.50;;
22030;SDS011;11179;52.106;21.024;2022-10-16T01:00:18;31.73;;;16.57;;
22030;SDS011;11179;52.106;21.024;2022-10-16T01:02:53;28.37;;;14.87;;
22030;SDS011;11179;52.106;21.024;2022-10-16T01:05:19;33.60;;;17.20;;
22030;SDS011;11179;52.106;21.024;2022-10-16T01:10:28;33.23;;;15.30;;
22030;SDS011;11179;52.106;21.024;2022-10-16T01:13:12;36.43;;;17.37;;
22030;SDS011;11179;52.106;21.024;2022-10-16T01:18:41;32.00;;;16.27;;
22030;SDS011;11179;52.106;21.024;2022-10-16T01:21:10;37.20;;;15.97;;
22030;SDS011;11179;52.106;21.024;2022-10-16T01:32:05;30.27;;;15.73;;
22030;SDS011;11179;52.106;21.024;2022-10-16T01:34:37;31.00;;;16.50;;
22030;SDS011;11179;52.106;21.024;2022-10-16T01:37:15;29.57;;;14.97;;
22030;SDS011;11179;52.106;21.024;2022-10-16T01:39:47;33.07;;;16.17;;
22030;SDS011;11179;52.106;21.024;2022-10-16T01:42:20;33.00;;;18.10;;
22030;SDS011;11179;52.106;21.024;2022-10-16T01:44:48;29.87;;;15.17;;
22030;SDS011;11179;52.106;21.024;2022-10-16T01:47:16;37.50;;;17.83;;
22030;SDS011;11179;52.106;21.024;2022-10-16T01:49:42;30.03;;;16.60;;
22030;SDS011;11179;52.106;21.024;2022-10-16T01:52:11;28.17;;;15.10;;
22030;SDS011;11179;52.106;21.024;2022-10-16T01:54:42;34.47;;;16.00;;
22030;SDS011;11179;52.106;21.024;2022-10-16T01:57:10;36.90;;;17.17;;
22030;SDS011;11179;52.106;21.024;2022-10-16T01:59:40;31.67;;;17.20;;
22030;SDS011;11179;52.106;21.024;2022-10-16T02:02:09;28.07;;;16.03;;
22030;SDS011;11179;52.106;21.024;2022-10-16T02:04:38;35.30;;;17.13;;
22030;SDS011;11179;52.106;21.024;2022-10-16T02:07:07;29.00;;;15.00;;
22030;SDS011;11179;52.106;21.024;2022-10-16T02:09:33;32.43;;;16.17;;
22030;SDS011;11179;52.106;21.024;2022-10-16T02:12:00;29.73;;;16.60;;
22030;SDS011;11179;52.106;21.024;2022-10-16T02:14:38;35.13;;;17.30;;
22030;SDS011;11179;52.106;21.024;2022-10-16T02:17:10;38.83;;;17.10;;
22030;SDS011;11179;52.106;21.024;2022-10-16T02:19:36;32.13;;;16.37;;
22030;SDS011;11179;52.106;21.024;2022-10-16T02:22:04;31.10;;;17.00;;
22030;SDS011;11179;52.106;21.024;2022-10-16T02:24:38;32.90;;;17.43;;
22030;SDS011;11179;52.106;21.024;2022-10-16T02:27:10;30.53;;;16.80;;
22030;SDS011;11179;52.106;21.024;2022-10-16T02:29:39;30.40;;;14.70;;
22030;SDS011;11179;52.106;21.024;2022-10-16T02:32:09;27.43;;;15.17;;
22030;SDS011;11179;52.106;21.024;2022-10-16T02:34:38;32.07;;;16.60;;
22030;SDS011;11179;52.106;21.024;2022-10-16T02:37:05;29.33;;;15.47;;
22030;SDS011;11179;52.106;21.024;2022-10-16T02:39:32;31.93;;;16.60;;
22030;SDS011;11179;52.106;21.024;2022-10-16T02:41:58;29.03;;;15.63;;
22030;SDS011;11179;52.106;21.024;2022-10-16T02:44:23;28.10;;;15.70;;
22030;SDS011;11179;52.106;21.024;2022-10-16T02:46:49;33.53;;;17.50;;
22030;SDS011;11179;52.106;21.024;2022-10-16T02:49:14;29.60;;;16.27;;
22030;SDS011;11179;52.106;21.024;2022-10-16T02:51:40;32.67;;;16.70;;
22030;SDS011;11179;52.106;21.024;2022-10-16T02:54:05;30.40;;;16.70;;
22030;SDS011;11179;52.106;21.024;2022-10-16T02:56:31;27.57;;;15.30;;
22030;SDS011;11179;52.106;21.024;2022-10-16T02:58:56;28.00;;;16.10;;
22030;SDS011;11179;52.106;21.024;2022-10-16T03:01:22;28.40;;;16.17;;
22030;SDS011;11179;52.106;21.024;2022-10-16T03:03:47;26.63;;;14.97;;
22030;SDS011;11179;52.106;21.024;2022-10-16T03:06:13;27.40;;;15.40;;
22030;SDS011;11179;52.106;21.024;2022-10-16T03:08:38;30.43;;;16.20;;
22030;SDS011;11179;52.106;21.024;2022-10-16T03:11:04;35.40;;;16.17;;
22030;SDS011;11179;52.106;21.024;2022-10-16T03:13:29;28.47;;;15.50;;
22030;SDS011;11179;52.106;21.024;2022-10-16T03:15:55;30.73;;;15.63;;
22030;SDS011;11179;52.106;21.024;2022-10-16T03:18:20;31.17;;;15.03;;
22030;SDS011;11179;52.106;21.024;2022-10-16T03:20:45;31.27;;;15.10;;
22030;SDS011;11179;52.106;21.024;2022-10-16T03:23:10;34.97;;;17.13;;
22030;SDS011;11179;52.106;21.024;2022-10-16T03:25:36;30.27;;;15.80;;
22030;SDS011;11179;52.106;21.024;2022-10-16T03:28:01;30.17;;;14.63;;
22030;SDS011;11179;52.106;21.024;2022-10-16T03:30:28;28.80;;;13.93;;
22030;SDS011;11179;52.106;21.024;2022-10-16T03:32:53;28.03;;;14.03;;
22030;SDS011;11179;52.106;21.024;2022-10-16T03:35:22;32.10;;;15.77;;
22030;SDS011;11179;52.106;21.024;2022-10-16T03:37:48;26.80;;;15.27;;
22030;SDS011;11179;52.106;21.024;2022-10-16T03:40:14;29.93;;;16.10;;
22030;SDS011;11179;52.106;21.024;2022-10-16T03:42:40;30.53;;;16.60;;
22030;SDS011;11179;52.106;21.024;2022-10-16T03:45:05;39.03;;;15.70;;
22030;SDS011;11179;52.106;21.024;2022-10-16T03:47:31;26.23;;;14.67;;
22030;SDS011;11179;52.106;21.024;2022-10-16T03:49:58;31.10;;;16.90;;
22030;SDS011;11179;52.106;21.024;2022-10-16T03:52:23;30.23;;;16.10;;
22030;SDS011;11179;52.106;21.024;2022-10-16T03:54:49;27.50;;;14.90;;
22030;SDS011;11179;52.106;21.024;2022-10-16T03:57:14;29.00;;;14.40;;
22030;SDS011;11179;52.106;21.024;2022-10-16T03:59:39;27.00;;;15.40;;
22030;SDS011;11179;52.106;21.024;2022-10-16T04:02:05;30.80;;;16.50;;
22030;SDS011;11179;52.106;21.024;2022-10-16T04:04:30;25.33;;;14.30;;
22030;SDS011;11179;52.106;21.024;2022-10-16T04:06:55;25.97;;;14.60;;
22030;SDS011;11179;52.106;21.024;2022-10-16T04:09:21;29.73;;;15.63;;
22030;SDS011;11179;52.106;21.024;2022-10-16T04:11:46;26.43;;;14.70;;
22030;SDS011;11179;52.106;21.024;2022-10-16T04:14:12;31.37;;;14.83;;
22030;SDS011;11179;52.106;21.024;2022-10-16T04:16:37;23.97;;;14.10;;
22030;SDS011;11179;52.106;21.024;2022-10-16T04:19:02;26.50;;;13.57;;
22030;SDS011;11179;52.106;21.024;2022-10-16T04:21:28;29.33;;;15.30;;
22030;SDS011;11179;52.106;21.024;2022-10-16T04:23:53;27.90;;;15.77;;
22030;SDS011;11179;52.106;21.024;2022-10-16T04:26:19;27.80;;;15.37;;
22030;SDS011;11179;52.106;21.024;2022-10-16T04:28:44;25.90;;;14.20;;
22030;SDS011;11179;52.106;21.024;2022-10-16T04:31:09;22.90;;;12.93;;
22030;SDS011;11179;52.106;21.024;2022-10-16T04:33:35;33.50;;;14.97;;
22030;SDS011;11179;52.106;21.024;2022-10-16T04:36:00;25.87;;;13.63;;
22030;SDS011;11179;52.106;21.024;2022-10-16T04:38:27;26.77;;;15.20;;
22030;SDS011;11179;52.106;21.024;2022-10-16T04:40:52;27.70;;;14.53;;
22030;SDS011;11179;52.106;21.024;2022-10-16T04:43:18;25.30;;;14.23;;
22030;SDS011;11179;52.106;21.024;2022-10-16T04:45:44;25.30;;;14.73;;
22030;SDS011;11179;52.106;21.024;2022-10-16T04:48:09;30.90;;;15.83;;
22030;SDS011;11179;52.106;21.024;2022-10-16T04:50:34;27.60;;;15.57;;
22030;SDS011;11179;52.106;21.024;2022-10-16T04:53:00;27.63;;;15.30;;
22030;SDS011;11179;52.106;21.024;2022-10-16T04:55:25;38.07;;;16.03;;
22030;SDS011;11179;52.106;21.024;2022-10-16T04:57:50;31.43;;;15.03;;
22030;SDS011;11179;52.106;21.024;2022-10-16T05:00:16;30.10;;;15.33;;
22030;SDS011;11179;52.106;21.024;2022-10-16T05:02:41;26.03;;;13.93;;
22030;SDS011;11179;52.106;21.024;2022-10-16T05:05:07;32.27;;;15.40;;
22030;SDS011;11179;52.106;21.024;2022-10-16T05:07:32;28.03;;;14.90;;
22030;SDS011;11179;52.106;21.024;2022-10-16T05:09:58;29.67;;;15.13;;
22030;SDS011;11179;52.106;21.024;2022-10-16T05:12:23;30.90;;;14.83;;
22030;SDS011;11179;52.106;21.024;2022-10-16T05:14:48;32.57;;;14.80;;
22030;SDS011;11179;52.106;21.024;2022-10-16T05:17:14;28.87;;;16.63;;
22030;SDS011;11179;52.106;21.024;2022-10-16T05:19:39;29.43;;;14.57;;
22030;SDS011;11179;52.106;21.024;2022-10-16T05:22:04;28.30;;;14.83;;
22030;SDS011;11179;52.106;21.024;2022-10-16T05:24:30;26.43;;;14.80;;
22030;SDS011;11179;52.106;21.024;2022-10-16T05:26:55;32.33;;;15.40;;
22030;SDS011;11179;52.106;21.024;2022-10-16T05:29:20;27.50;;;14.23;;
22030;SDS011;11179;52.106;21.024;2022-10-16T05:31:46;25.43;;;14.37;;
22030;SDS011;11179;52.106;21.024;2022-10-16T05:34:11;29.63;;;15.37;;
22030;SDS011;11179;52.106;21.024;2022-10-16T05:36:37;27.83;;;14.10;;
22030;SDS011;11179;52.106;21.024;2022-10-16T05:39:02;26.87;;;14.70;;
22030;SDS011;11179;52.106;21.024;2022-10-16T05:41:28;27.43;;;13.67;;
22030;SDS011;11179;52.106;21.024;2022-10-16T05:43:53;26.73;;;14.83;;
22030;SDS011;11179;52.106;21.024;2022-10-16T05:46:19;26.50;;;13.70;;
22030;SDS011;11179;52.106;21.024;2022-10-16T05:48:45;28.80;;;14.37;;
22030;SDS011;11179;52.106;21.024;2022-10-16T05:51:11;28.73;;;15.10;;
22030;SDS011;11179;52.106;21.024;2022-10-16T05:53:39;22.80;;;12.93;;
22030;SDS011;11179;52.106;21.024;2022-10-16T05:56:05;26.77;;;14.17;;
22030;SDS011;11179;52.106;21.024;2022-10-16T05:58:33;27.43;;;13.53;;
22030;SDS011;11179;52.106;21.024;2022-10-16T06:01:07;27.43;;;13.80;;
22030;SDS011;11179;52.106;21.024;2022-10-16T06:03:35;28.43;;;14.27;;
22030;SDS011;11179;52.106;21.024;2022-10-16T06:06:07;30.13;;;15.67;;
22030;SDS011;11179;52.106;21.024;2022-10-16T06:08:37;28.97;;;13.27;;
22030;SDS011;11179;52.106;21.024;2022-10-16T06:11:04;32.27;;;15.60;;
22030;SDS011;11179;52.106;21.024;2022-10-16T06:13:31;23.00;;;13.67;;
22030;SDS011;11179;52.106;21.024;2022-10-16T06:15:57;36.13;;;14.23;;
22030;SDS011;11179;52.106;21.024;2022-10-16T06:18:24;21.70;;;12.73;;
22030;SDS011;11179;52.106;21.024;2022-10-16T06:20:50;27.30;;;14.47;;
22030;SDS011;11179;52.106;21.024;2022-10-16T06:23:15;28.60;;;14.70;;
22030;SDS011;11179;52.106;21.024;2022-10-16T06:25:41;25.50;;;13.57;;
22030;SDS011;11179;52.106;21.024;2022-10-16T06:28:06;26.30;;;14.67;;
22030;SDS011;11179;52.106;21.024;2022-10-16T06:30:31;24.17;;;14.17;;
22030;SDS011;11179;52.106;21.024;2022-10-16T06:32:57;25.20;;;13.80;;
22030;SDS011;11179;52.106;21.024;2022-10-16T06:35:22;29.03;;;14.03;;
22030;SDS011;11179;52.106;21.024;2022-10-16T06:37:47;39.43;;;14.97;;
22030;SDS011;11179;52.106;21.024;2022-10-16T06:40:13;27.27;;;15.17;;
22030;SDS011;11179;52.106;21.024;2022-10-16T06:42:39;25.13;;;14.20;;
22030;SDS011;11179;52.106;21.024;2022-10-16T06:45:05;24.93;;;13.73;;
22030;SDS011;11179;52.106;21.024;2022-10-16T06:47:31;23.40;;;13.90;;
22030;SDS011;11179;52.106;21.024;2022-10-16T06:49:56;27.37;;;14.50;;
22030;SDS011;11179;52.106;21.024;2022-10-16T06:52:21;26.87;;;14.47;;
22030;SDS011;11179;52.106;21.024;2022-10-16T06:54:47;28.20;;;14.10;;
22030;SDS011;11179;52.106;21.024;2022-10-16T06:57:12;25.57;;;13.80;;
22030;SDS011;11179;52.106;21.024;2022-10-16T06:59:37;30.80;;;14.20;;
22030;SDS011;11179;52.106;21.024;2022-10-16T07:02:03;23.37;;;13.13;;
22030;SDS011;11179;52.106;21.024;2022-10-16T07:04:28;23.77;;;13.93;;
22030;SDS011;11179;52.106;21.024;2022-10-16T07:06:53;28.37;;;12.97;;
22030;SDS011;11179;52.106;21.024;2022-10-16T07:09:19;26.40;;;13.53;;
22030;SDS011;11179;52.106;21.024;2022-10-16T07:11:44;23.80;;;13.70;;
22030;SDS011;11179;52.106;21.024;2022-10-16T07:16:43;23.07;;;14.17;;
22030;SDS011;11179;52.106;21.024;2022-10-16T07:19:09;22.17;;;12.70;;
22030;SDS011;11179;52.106;21.024;2022-10-16T07:21:36;23.03;;;12.80;;
22030;SDS011;11179;52.106;21.024;2022-10-16T07:24:02;27.43;;;13.40;;
22030;SDS011;11179;52.106;21.024;2022-10-16T07:26:30;23.97;;;12.87;;
22030;SDS011;11179;52.106;21.024;2022-10-16T07:28:58;24.70;;;13.10;;
22030;SDS011;11179;52.106;21.024;2022-10-16T07:31:23;23.20;;;13.80;;
22030;SDS011;11179;52.106;21.024;2022-10-16T07:33:49;22.17;;;12.93;;
22030;SDS011;11179;52.106;21.024;2022-10-16T07:36:16;21.80;;;12.80;;
22030;SDS011;11179;52.106;21.024;2022-10-16T07:38:42;24.10;;;13.50;;
22030;SDS011;11179;52.106;21.024;2022-10-16T07:41:09;23.03;;;13.43;;
22030;SDS011;11179;52.106;21.024;2022-10-16T07:43:39;32.90;;;13.73;;
22030;SDS011;11179;52.106;21.024;2022-10-16T07:46:09;23.90;;;12.53;;
22030;SDS011;11179;52.106;21.024;2022-10-16T07:48:35;33.30;;;12.57;;
22030;SDS011;11179;52.106;21.024;2022-10-16T07:51:02;30.37;;;12.73;;
22030;SDS011;11179;52.106;21.024;2022-10-16T07:53:29;22.67;;;13.67;;
22030;SDS011;11179;52.106;21.024;2022-10-16T07:56:01;25.00;;;13.30;;
22030;SDS011;11179;52.106;21.024;2022-10-16T07:58:28;26.37;;;13.03;;
22030;SDS011;11179;52.106;21.024;2022-10-16T08:00:54;21.27;;;12.83;;
22030;SDS011;11179;52.106;21.024;2022-10-16T08:03:20;22.77;;;12.00;;
22030;SDS011;11179;52.106;21.024;2022-10-16T08:05:46;22.67;;;12.27;;
22030;SDS011;11179;52.106;21.024;2022-10-16T08:08:15;21.23;;;12.23;;
22030;SDS011;11179;52.106;21.024;2022-10-16T08:10:42;23.53;;;11.60;;
22030;SDS011;11179;52.106;21.024;2022-10-16T08:13:07;18.30;;;12.20;;
22030;SDS011;11179;52.106;21.024;2022-10-16T08:15:33;22.23;;;11.97;;
22030;SDS011;11179;52.106;21.024;2022-10-16T08:18:02;21.37;;;12.10;;
22030;SDS011;11179;52.106;21.024;2022-10-16T08:20:29;29.37;;;13.03;;
22030;SDS011;11179;52.106;21.024;2022-10-16T08:22:56;19.90;;;11.37;;
22030;SDS011;11179;52.106;21.024;2022-10-16T08:25:22;20.17;;;11.60;;
22030;SDS011;11179;52.106;21.024;2022-10-16T08:27:49;19.80;;;11.70;;
22030;SDS011;11179;52.106;21.024;2022-10-16T08:30:15;24.10;;;12.20;;
22030;SDS011;11179;52.106;21.024;2022-10-16T08:32:41;25.63;;;12.77;;
22030;SDS011;11179;52.106;21.024;2022-10-16T08:35:07;26.73;;;11.30;;
22030;SDS011;11179;52.106;21.024;2022-10-16T08:37:34;17.00;;;10.53;;
22030;SDS011;11179;52.106;21.024;2022-10-16T08:40:00;18.90;;;11.00;;
22030;SDS011;11179;52.106;21.024;2022-10-16T08:42:29;19.23;;;11.07;;
22030;SDS011;11179;52.106;21.024;2022-10-16T08:50:51;21.57;;;12.30;;
22030;SDS011;11179;52.106;21.024;2022-10-16T08:53:24;18.83;;;11.20;;
22030;SDS011;11179;52.106;21.024;2022-10-16T08:55:55;17.00;;;11.07;;
22030;SDS011;11179;52.106;21.024;2022-10-16T08:58:21;20.83;;;11.60;;
22030;SDS011;11179;52.106;21.024;2022-10-16T09:00:54;26.20;;;12.97;;
22030;SDS011;11179;52.106;21.024;2022-10-16T09:09:02;19.03;;;11.43;;
22030;SDS011;11179;52.106;21.024;2022-10-16T09:17:30;23.87;;;11.33;;
22030;SDS011;11179;52.106;21.024;2022-10-16T09:25:29;32.27;;;14.13;;
22030;SDS011;11179;52.106;21.024;2022-10-16T09:27:57;18.17;;;10.83;;
22030;SDS011;11179;52.106;21.024;2022-10-16T09:30:22;22.37;;;10.80;;
22030;SDS011;11179;52.106;21.024;2022-10-16T09:32:53;19.50;;;11.47;;
22030;SDS011;11179;52.106;21.024;2022-10-16T09:35:20;18.10;;;10.00;;
22030;SDS011;11179;52.106;21.024;2022-10-16T09:37:50;19.47;;;11.87;;
22030;SDS011;11179;52.106;21.024;2022-10-16T09:48:24;19.50;;;10.10;;
22030;SDS011;11179;52.106;21.024;2022-10-16T09:50:59;17.50;;;10.40;;
22030;SDS011;11179;52.106;21.024;2022-10-16T09:53:38;16.57;;;10.57;;
22030;SDS011;11179;52.106;21.024;2022-10-16T09:56:06;22.10;;;11.53;;
22030;SDS011;11179;52.106;21.024;2022-10-16T09:58:32;17.30;;;10.07;;
22030;SDS011;11179;52.106;21.024;2022-10-16T10:00:58;20.30;;;11.40;;
22030;SDS011;11179;52.106;21.024;2022-10-16T10:03:35;19.83;;;10.13;;
22030;SDS011;11179;52.106;21.024;2022-10-16T10:06:15;20.43;;;10.20;;
22030;SDS011;11179;52.106;21.024;2022-10-16T10:14:06;17.07;;;10.17;;
22030;SDS011;11179;52.106;21.024;2022-10-16T10:16:38;16.70;;;9.93;;
22030;SDS011;11179;52.106;21.024;2022-10-16T10:19:03;23.87;;;10.70;;
22030;SDS011;11179;52.106;21.024;2022-10-16T10:21:29;17.90;;;8.90;;
22030;SDS011;11179;52.106;21.024;2022-10-16T10:23:58;15.60;;;10.10;;
22030;SDS011;11179;52.106;21.024;2022-10-16T10:26:24;15.17;;;9.40;;
22030;SDS011;11179;52.106;21.024;2022-10-16T10:34:35;18.37;;;9.50;;
22030;SDS011;11179;52.106;21.024;2022-10-16T10:39:50;19.60;;;9.73;;
22030;SDS011;11179;52.106;21.024;2022-10-16T10:42:34;18.70;;;9.73;;
22030;SDS011;11179;52.106;21.024;2022-10-16T10:52:56;19.40;;;10.50;;
22030;SDS011;11179;52.106;21.024;2022-10-16T10:55:39;19.00;;;10.87;;
22030;SDS011;11179;52.106;21.024;2022-10-16T11:08:57;19.63;;;10.17;;
22030;SDS011;11179;52.106;21.024;2022-10-16T11:14:15;20.03;;;10.10;;
22030;SDS011;11179;52.106;21.024;2022-10-16T11:19:33;24.50;;;10.40;;
22030;SDS011;11179;52.106;21.024;2022-10-16T11:30:27;40.50;;;12.20;;
22030;SDS011;11179;52.106;21.024;2022-10-16T11:36:00;15.93;;;9.20;;
22030;SDS011;11179;52.106;21.024;2022-10-16T11:38:45;15.00;;;8.73;;
22030;SDS011;11179;52.106;21.024;2022-10-16T11:41:18;17.60;;;8.63;;
22030;SDS011;11179;52.106;21.024;2022-10-16T11:43:52;30.53;;;11.50;;
22030;SDS011;11179;52.106;21.024;2022-10-16T11:46:27;17.90;;;9.50;;
22030;SDS011;11179;52.106;21.024;2022-10-16T11:51:35;14.67;;;8.30;;
22030;SDS011;11179;52.106;21.024;2022-10-16T11:54:07;69.43;;;14.40;;
22030;SDS011;11179;52.106;21.024;2022-10-16T11:56:43;18.40;;;8.97;;
22030;SDS011;11179;52.106;21.024;2022-10-16T12:04:41;14.83;;;9.23;;
22030;SDS011;11179;52.106;21.024;2022-10-16T12:07:13;14.57;;;9.03;;
22030;SDS011;11179;52.106;21.024;2022-10-16T12:09:42;18.17;;;9.10;;
22030;SDS011;11179;52.106;21.024;2022-10-16T12:12:24;23.50;;;9.57;;
22030;SDS011;11179;52.106;21.024;2022-10-16T12:17:37;15.40;;;8.60;;
22030;SDS011;11179;52.106;21.024;2022-10-16T12:20:18;16.30;;;8.93;;
22030;SDS011;11179;52.106;21.024;2022-10-16T12:22:54;14.77;;;8.80;;
22030;SDS011;11179;52.106;21.024;2022-10-16T12:28:19;17.43;;;9.43;;
22030;SDS011;11179;52.106;21.024;2022-10-16T12:30:53;18.60;;;9.63;;
22030;SDS011;11179;52.106;21.024;2022-10-16T12:33:22;15.93;;;9.27;;
22030;SDS011;11179;52.106;21.024;2022-10-16T12:35:48;16.43;;;9.07;;
22030;SDS011;11179;52.106;21.024;2022-10-16T12:40:40;21.00;;;9.90;;
22030;SDS011;11179;52.106;21.024;2022-10-16T12:43:12;16.60;;;9.10;;
22030;SDS011;11179;52.106;21.024;2022-10-16T12:46:03;16.30;;;9.10;;
22030;SDS011;11179;52.106;21.024;2022-10-16T12:48:32;16.30;;;9.63;;
22030;SDS011;11179;52.106;21.024;2022-10-16T12:51:09;14.03;;;8.20;;
22030;SDS011;11179;52.106;21.024;2022-10-16T12:54:04;12.77;;;7.73;;
22030;SDS011;11179;52.106;21.024;2022-10-16T13:07:40;21.37;;;9.53;;
22030;SDS011;11179;52.106;21.024;2022-10-16T13:10:21;18.20;;;8.30;;
22030;SDS011;11179;52.106;21.024;2022-10-16T13:13:02;14.10;;;7.70;;
22030;SDS011;11179;52.106;21.024;2022-10-16T13:18:16;14.57;;;8.50;;
22030;SDS011;11179;52.106;21.024;2022-10-16T13:26:24;19.93;;;9.50;;
22030;SDS011;11179;52.106;21.024;2022-10-16T13:28:52;17.77;;;8.70;;
22030;SDS011;11179;52.106;21.024;2022-10-16T13:31:23;13.30;;;7.40;;
22030;SDS011;11179;52.106;21.024;2022-10-16T13:33:51;15.60;;;8.03;;
22030;SDS011;11179;52.106;21.024;2022-10-16T13:36:27;18.23;;;8.37;;
22030;SDS011;11179;52.106;21.024;2022-10-16T13:42:03;16.73;;;8.27;;
22030;SDS011;11179;52.106;21.024;2022-10-16T13:44:50;13.67;;;7.67;;
22030;SDS011;11179;52.106;21.024;2022-10-16T13:47:21;17.13;;;8.20;;
22030;SDS011;11179;52.106;21.024;2022-10-16T13:50:11;14.70;;;8.50;;
22030;SDS011;11179;52.106;21.024;2022-10-16T13:52:38;16.13;;;7.90;;
22030;SDS011;11179;52.106;21.024;2022-10-16T13:55:04;18.93;;;8.60;;
22030;SDS011;11179;52.106;21.024;2022-10-16T13:57:40;17.20;;;7.33;;
22030;SDS011;11179;52.106;21.024;2022-10-16T14:00:19;18.10;;;7.87;;
22030;SDS011;11179;52.106;21.024;2022-10-16T14:02:55;15.23;;;8.40;;
22030;SDS011;11179;52.106;21.024;2022-10-16T14:05:26;13.30;;;8.00;;
22030;SDS011;11179;52.106;21.024;2022-10-16T14:07:55;16.40;;;9.13;;
22030;SDS011;11179;52.106;21.024;2022-10-16T14:10:27;16.77;;;8.37;;
22030;SDS011;11179;52.106;21.024;2022-10-16T14:13:02;17.90;;;9.20;;
22030;SDS011;11179;52.106;21.024;2022-10-16T14:15:33;15.00;;;8.70;;
22030;SDS011;11179;52.106;21.024;2022-10-16T14:18:00;15.27;;;9.63;;
22030;SDS011;11179;52.106;21.024;2022-10-16T14:20:28;14.33;;;8.37;;
22030;SDS011;11179;52.106;21.024;2022-10-16T14:23:30;15.93;;;8.30;;
22030;SDS011;11179;52.106;21.024;2022-10-16T14:25:52;15.23;;;8.50;;
22030;SDS011;11179;52.106;21.024;2022-10-16T14:28:22;16.03;;;9.33;;
22030;SDS011;11179;52.106;21.024;2022-10-16T14:30:52;15.67;;;8.47;;
22030;SDS011;11179;52.106;21.024;2022-10-16T14:36:03;13.70;;;8.57;;
22030;SDS011;11179;52.106;21.024;2022-10-16T14:38:31;14.67;;;8.10;;
22030;SDS011;11179;52.106;21.024;2022-10-16T14:40:58;15.80;;;8.50;;
22030;SDS011;11179;52.106;21.024;2022-10-16T14:43:40;18.27;;;10.00;;
22030;SDS011;11179;52.106;21.024;2022-10-16T14:46:10;18.20;;;8.63;;
22030;SDS011;11179;52.106;21.024;2022-10-16T14:48:48;17.07;;;8.77;;
22030;SDS011;11179;52.106;21.024;2022-10-16T14:51:16;16.53;;;9.73;;
22030;SDS011;11179;52.106;21.024;2022-10-16T14:53:43;18.20;;;9.80;;
22030;SDS011;11179;52.106;21.024;2022-10-16T14:56:14;17.50;;;9.17;;
22030;SDS011;11179;52.106;21.024;2022-10-16T14:58:42;19.20;;;10.63;;
22030;SDS011;11179;52.106;21.024;2022-10-16T15:01:09;16.40;;;9.53;;
22030;SDS011;11179;52.106;21.024;2022-10-16T15:03:35;14.87;;;9.53;;
22030;SDS011;11179;52.106;21.024;2022-10-16T15:06:01;17.47;;;9.37;;
22030;SDS011;11179;52.106;21.024;2022-10-16T15:08:26;16.57;;;9.10;;
22030;SDS011;11179;52.106;21.024;2022-10-16T15:10:52;22.47;;;10.83;;
22030;SDS011;11179;52.106;21.024;2022-10-16T15:13:17;15.30;;;9.37;;
22030;SDS011;11179;52.106;21.024;2022-10-16T15:15:43;21.03;;;9.53;;
22030;SDS011;11179;52.106;21.024;2022-10-16T15:18:10;18.90;;;9.60;;
22030;SDS011;11179;52.106;21.024;2022-10-16T15:20:37;22.10;;;10.10;;
22030;SDS011;11179;52.106;21.024;2022-10-16T15:23:04;20.73;;;9.10;;
22030;SDS011;11179;52.106;21.024;2022-10-16T15:25:41;15.80;;;9.07;;
22030;SDS011;11179;52.106;21.024;2022-10-16T15:28:09;15.93;;;8.93;;
22030;SDS011;11179;52.106;21.024;2022-10-16T15:30:35;16.43;;;9.57;;
22030;SDS011;11179;52.106;21.024;2022-10-16T15:33:02;17.23;;;9.30;;
22030;SDS011;11179;52.106;21.024;2022-10-16T15:35:28;17.30;;;10.57;;
22030;SDS011;11179;52.106;21.024;2022-10-16T15:37:54;20.87;;;10.70;;
22030;SDS011;11179;52.106;21.024;2022-10-16T15:40:20;17.00;;;9.80;;
22030;SDS011;11179;52.106;21.024;2022-10-16T15:42:46;21.67;;;10.40;;
22030;SDS011;11179;52.106;21.024;2022-10-16T15:45:17;17.17;;;9.50;;
22030;SDS011;11179;52.106;21.024;2022-10-16T15:47:44;20.03;;;10.80;;
22030;SDS011;11179;52.106;21.024;2022-10-16T15:50:10;22.60;;;10.70;;
22030;SDS011;11179;52.106;21.024;2022-10-16T15:52:37;20.27;;;10.80;;
22030;SDS011;11179;52.106;21.024;2022-10-16T15:55:04;21.27;;;11.57;;
22030;SDS011;11179;52.106;21.024;2022-10-16T15:57:31;20.50;;;11.03;;
22030;SDS011;11179;52.106;21.024;2022-10-16T15:59:56;16.90;;;10.40;;
22030;SDS011;11179;52.106;21.024;2022-10-16T16:02:22;19.07;;;10.60;;
22030;SDS011;11179;52.106;21.024;2022-10-16T16:04:47;18.30;;;10.33;;
22030;SDS011;11179;52.106;21.024;2022-10-16T16:07:12;18.07;;;10.77;;
22030;SDS011;11179;52.106;21.024;2022-10-16T16:09:38;18.00;;;11.07;;
22030;SDS011;11179;52.106;21.024;2022-10-16T16:12:03;27.20;;;11.37;;
22030;SDS011;11179;52.106;21.024;2022-10-16T16:14:28;19.77;;;11.33;;
22030;SDS011;11179;52.106;21.024;2022-10-16T16:16:54;19.27;;;11.97;;
22030;SDS011;11179;52.106;21.024;2022-10-16T16:19:20;20.20;;;12.13;;
22030;SDS011;11179;52.106;21.024;2022-10-16T16:21:48;21.00;;;12.07;;
22030;SDS011;11179;52.106;21.024;2022-10-16T16:24:14;22.20;;;13.00;;
22030;SDS011;11179;52.106;21.024;2022-10-16T16:26:40;27.40;;;12.90;;
22030;SDS011;11179;52.106;21.024;2022-10-16T16:29:08;19.77;;;11.77;;
22030;SDS011;11179;52.106;21.024;2022-10-16T16:31:38;23.53;;;13.00;;
22030;SDS011;11179;52.106;21.024;2022-10-16T16:34:04;21.50;;;12.20;;
22030;SDS011;11179;52.106;21.024;2022-10-16T16:36:30;23.00;;;13.00;;